Terminal Aerodrome Forecast
Issued by NWS

Home | Current Version | Previous Version | Text Only | Print | Product List | Glossary On
Versions: 1 2 3 4 5 6 7 8 9 10 11 12 13 14 15 16 17 18 19
000
FTUS46 KPDT 121135
TAFDLS
TAF
KDLS 121135Z 1212/1312 00000KT 2SM BR OVC021
     FM121600 31005KT 3SM -RA BR BKN005 OVC025
     FM122100 31009KT 5SM -SHRA BR SCT003 OVC050
     FM130300 31006KT P6SM SCT050
     FM130900 34003KT 6SM BR SCT035 BKN050=

USA.gov is the U.S. government's official web portal to all federal, state and local government web resources and services.